sensor_id;sensor_type;location;lat;lon;timestamp;pressure;altitude;pressure_sealevel;temperature;humidity
77227;BME280;66234;47.642;19.144;2023-01-01T00:02:32;101375.59;;;2.71;95.31
77227;BME280;66234;47.642;19.144;2023-01-01T00:05:38;101374.13;;;2.78;94.89
77227;BME280;66234;47.642;19.144;2023-01-01T00:08:41;101380.69;;;2.83;95.21
77227;BME280;66234;47.642;19.144;2023-01-01T00:11:43;101388.53;;;2.94;94.91
77227;BME280;66234;47.642;19.144;2023-01-01T00:14:46;101393.34;;;3.10;94.85
77227;BME280;66234;47.642;19.144;2023-01-01T00:17:48;101389.63;;;3.12;94.38
77227;BME280;66234;47.642;19.144;2023-01-01T00:20:51;101382.91;;;3.08;94.56
77227;BME280;66234;47.642;19.144;2023-01-01T00:23:53;101380.66;;;3.04;94.39
77227;BME280;66234;47.642;19.144;2023-01-01T00:26:56;101365.19;;;2.99;94.30
77227;BME280;66234;47.642;19.144;2023-01-01T00:29:59;101376.47;;;3.01;94.33
77227;BME280;66234;47.642;19.144;2023-01-01T00:33:02;101384.16;;;3.04;94.42
77227;BME280;66234;47.642;19.144;2023-01-01T00:36:12;101374.84;;;3.10;94.64
77227;BME280;66234;47.642;19.144;2023-01-01T00:39:15;101360.41;;;3.14;94.71
77227;BME280;66234;47.642;19.144;2023-01-01T00:42:17;101361.75;;;3.08;94.57
77227;BME280;66234;47.642;19.144;2023-01-01T00:45:20;101362.22;;;3.13;94.92
77227;BME280;66234;47.642;19.144;2023-01-01T00:48:24;101368.72;;;3.09;95.19
77227;BME280;66234;47.642;19.144;2023-01-01T00:51:27;101365.69;;;3.14;95.25
77227;BME280;66234;47.642;19.144;2023-01-01T00:54:37;101387.00;;;3.22;95.05
77227;BME280;66234;47.642;19.144;2023-01-01T00:57:40;101378.06;;;3.13;94.12
77227;BME280;66234;47.642;19.144;2023-01-01T01:00:43;101379.91;;;3.22;95.07
77227;BME280;66234;47.642;19.144;2023-01-01T01:03:46;101383.00;;;3.27;95.15
77227;BME280;66234;47.642;19.144;2023-01-01T01:06:49;101387.56;;;3.25;95.26
77227;BME280;66234;47.642;19.144;2023-01-01T01:09:51;101376.41;;;3.22;95.31
77227;BME280;66234;47.642;19.144;2023-01-01T01:12:54;101375.22;;;3.26;95.08
77227;BME280;66234;47.642;19.144;2023-01-01T01:15:56;101381.44;;;3.25;95.37
77227;BME280;66234;47.642;19.144;2023-01-01T01:19:00;101372.69;;;3.24;95.10
77227;BME280;66234;47.642;19.144;2023-01-01T01:22:04;101384.09;;;3.25;94.64
77227;BME280;66234;47.642;19.144;2023-01-01T01:25:06;101376.13;;;3.15;94.90
77227;BME280;66234;47.642;19.144;2023-01-01T01:28:10;101381.56;;;3.23;94.98
77227;BME280;66234;47.642;19.144;2023-01-01T01:31:12;101379.25;;;3.30;94.74
77227;BME280;66234;47.642;19.144;2023-01-01T01:34:15;101380.94;;;3.31;94.69
77227;BME280;66234;47.642;19.144;2023-01-01T01:37:25;101383.44;;;3.32;94.57
77227;BME280;66234;47.642;19.144;2023-01-01T01:40:29;101377.84;;;3.26;94.21
77227;BME280;66234;47.642;19.144;2023-01-01T01:46:38;101382.16;;;3.27;94.01
77227;BME280;66234;47.642;19.144;2023-01-01T01:49:43;101365.44;;;3.17;93.87
77227;BME280;66234;47.642;19.144;2023-01-01T01:56:00;101364.72;;;3.15;94.17
77227;BME280;66234;47.642;19.144;2023-01-01T01:59:05;101360.28;;;3.15;94.02
77227;BME280;66234;47.642;19.144;2023-01-01T02:02:16;101365.00;;;3.12;93.56
77227;BME280;66234;47.642;19.144;2023-01-01T02:05:21;101364.84;;;3.13;93.75
77227;BME280;66234;47.642;19.144;2023-01-01T02:08:25;101366.38;;;3.16;93.31
77227;BME280;66234;47.642;19.144;2023-01-01T02:11:28;101377.09;;;3.14;93.13
77227;BME280;66234;47.642;19.144;2023-01-01T02:14:30;101374.56;;;3.13;93.59
77227;BME280;66234;47.642;19.144;2023-01-01T02:17:43;101388.63;;;3.13;93.63
77227;BME280;66234;47.642;19.144;2023-01-01T02:20:58;101386.84;;;3.23;93.29
77227;BME280;66234;47.642;19.144;2023-01-01T02:24:55;101391.66;;;3.39;92.65
77227;BME280;66234;47.642;19.144;2023-01-01T02:31:02;101390.56;;;3.42;92.40
77227;BME280;66234;47.642;19.144;2023-01-01T02:34:08;101394.03;;;3.42;92.38
77227;BME280;66234;47.642;19.144;2023-01-01T02:37:15;101412.13;;;3.47;92.65
77227;BME280;66234;47.642;19.144;2023-01-01T02:40:22;101424.41;;;3.48;92.80
77227;BME280;66234;47.642;19.144;2023-01-01T02:43:26;101409.06;;;3.42;92.85
77227;BME280;66234;47.642;19.144;2023-01-01T02:46:32;101405.72;;;3.39;93.12
77227;BME280;66234;47.642;19.144;2023-01-01T02:49:45;101400.84;;;3.35;92.99
77227;BME280;66234;47.642;19.144;2023-01-01T02:56:20;101398.19;;;3.35;93.60
77227;BME280;66234;47.642;19.144;2023-01-01T03:03:18;101388.19;;;3.48;94.04
77227;BME280;66234;47.642;19.144;2023-01-01T03:13:08;101376.31;;;3.63;94.28
77227;BME280;66234;47.642;19.144;2023-01-01T03:16:17;101381.47;;;3.65;94.14
77227;BME280;66234;47.642;19.144;2023-01-01T03:19:27;101380.75;;;3.63;94.48
77227;BME280;66234;47.642;19.144;2023-01-01T03:22:33;101385.06;;;3.64;94.48
77227;BME280;66234;47.642;19.144;2023-01-01T03:25:45;101377.66;;;3.58;94.41
77227;BME280;66234;47.642;19.144;2023-01-01T03:28:55;101373.94;;;3.60;94.29
77227;BME280;66234;47.642;19.144;2023-01-01T03:32:00;101376.00;;;3.57;94.26
77227;BME280;66234;47.642;19.144;2023-01-01T03:35:04;101370.72;;;3.57;94.38
77227;BME280;66234;47.642;19.144;2023-01-01T03:38:49;101364.16;;;3.61;94.28
77227;BME280;66234;47.642;19.144;2023-01-01T03:45:28;101380.19;;;3.69;93.77
77227;BME280;66234;47.642;19.144;2023-01-01T03:48:31;101379.09;;;3.62;93.89
77227;BME280;66234;47.642;19.144;2023-01-01T03:55:28;101387.88;;;3.72;93.39
77227;BME280;66234;47.642;19.144;2023-01-01T03:58:39;101386.06;;;3.72;93.51
77227;BME280;66234;47.642;19.144;2023-01-01T04:01:50;101370.88;;;3.65;93.60
77227;BME280;66234;47.642;19.144;2023-01-01T04:04:56;101367.50;;;3.53;93.41
77227;BME280;66234;47.642;19.144;2023-01-01T04:08:01;101366.81;;;3.61;93.51
77227;BME280;66234;47.642;19.144;2023-01-01T04:11:14;101367.66;;;3.61;93.50
77227;BME280;66234;47.642;19.144;2023-01-01T04:14:39;101375.72;;;3.60;93.35
77227;BME280;66234;47.642;19.144;2023-01-01T04:17:42;101370.56;;;3.58;93.42
77227;BME280;66234;47.642;19.144;2023-01-01T04:20:45;101380.03;;;3.61;93.56
77227;BME280;66234;47.642;19.144;2023-01-01T04:23:48;101378.38;;;3.60;93.60
77227;BME280;66234;47.642;19.144;2023-01-01T04:26:51;101372.25;;;3.59;93.30
77227;BME280;66234;47.642;19.144;2023-01-01T04:29:54;101372.53;;;3.66;93.29
77227;BME280;66234;47.642;19.144;2023-01-01T04:32:57;101379.22;;;3.60;93.74
77227;BME280;66234;47.642;19.144;2023-01-01T04:36:09;101388.81;;;3.61;93.78
77227;BME280;66234;47.642;19.144;2023-01-01T04:39:11;101385.31;;;3.61;94.00
77227;BME280;66234;47.642;19.144;2023-01-01T04:42:14;101387.28;;;3.59;94.00
77227;BME280;66234;47.642;19.144;2023-01-01T04:45:16;101381.56;;;3.54;94.04
77227;BME280;66234;47.642;19.144;2023-01-01T04:48:19;101383.06;;;3.47;94.16
77227;BME280;66234;47.642;19.144;2023-01-01T04:51:22;101385.69;;;3.47;94.38
77227;BME280;66234;47.642;19.144;2023-01-01T04:54:24;101385.97;;;3.43;94.69
77227;BME280;66234;47.642;19.144;2023-01-01T04:57:30;101387.13;;;3.51;94.33
77227;BME280;66234;47.642;19.144;2023-01-01T05:00:33;101387.38;;;3.48;93.00
77227;BME280;66234;47.642;19.144;2023-01-01T05:03:36;101370.47;;;3.29;92.92
77227;BME280;66234;47.642;19.144;2023-01-01T05:06:38;101387.16;;;3.30;92.81
77227;BME280;66234;47.642;19.144;2023-01-01T05:09:41;101389.81;;;3.30;91.97
77227;BME280;66234;47.642;19.144;2023-01-01T05:12:43;101381.84;;;3.20;92.52
77227;BME280;66234;47.642;19.144;2023-01-01T05:15:46;101390.16;;;3.16;92.89
77227;BME280;66234;47.642;19.144;2023-01-01T05:18:50;101391.16;;;3.15;92.76
77227;BME280;66234;47.642;19.144;2023-01-01T05:21:54;101389.28;;;3.06;91.99
77227;BME280;66234;47.642;19.144;2023-01-01T05:24:57;101395.25;;;2.98;92.35
77227;BME280;66234;47.642;19.144;2023-01-01T05:27:59;101390.22;;;2.95;92.88
77227;BME280;66234;47.642;19.144;2023-01-01T05:31:11;101388.78;;;2.91;93.26
77227;BME280;66234;47.642;19.144;2023-01-01T05:34:14;101383.06;;;2.86;93.38
77227;BME280;66234;47.642;19.144;2023-01-01T05:37:16;101393.31;;;2.80;93.45
77227;BME280;66234;47.642;19.144;2023-01-01T05:40:19;101396.53;;;2.83;93.72
77227;BME280;66234;47.642;19.144;2023-01-01T05:43:24;101402.66;;;2.84;93.78
77227;BME280;66234;47.642;19.144;2023-01-01T05:46:26;101405.88;;;2.87;93.80
77227;BME280;66234;47.642;19.144;2023-01-01T05:49:29;101408.00;;;2.93;93.61
77227;BME280;66234;47.642;19.144;2023-01-01T05:52:31;101422.34;;;3.00;93.62
77227;BME280;66234;47.642;19.144;2023-01-01T05:55:34;101424.97;;;3.00;93.50
77227;BME280;66234;47.642;19.144;2023-01-01T05:58:37;101428.66;;;3.09;92.95
77227;BME280;66234;47.642;19.144;2023-01-01T06:01:39;101415.06;;;3.13;92.81
77227;BME280;66234;47.642;19.144;2023-01-01T06:04:47;101427.81;;;3.08;92.42
77227;BME280;66234;47.642;19.144;2023-01-01T06:07:49;101429.47;;;3.09;92.68
77227;BME280;66234;47.642;19.144;2023-01-01T06:10:57;101435.16;;;3.05;92.42
77227;BME280;66234;47.642;19.144;2023-01-01T06:14:00;101439.56;;;2.95;92.47
77227;BME280;66234;47.642;19.144;2023-01-01T06:17:02;101472.16;;;2.84;92.94
77227;BME280;66234;47.642;19.144;2023-01-01T06:20:05;101479.56;;;2.90;93.02
77227;BME280;66234;47.642;19.144;2023-01-01T06:23:08;101475.38;;;2.88;92.65
77227;BME280;66234;47.642;19.144;2023-01-01T06:26:16;101482.81;;;2.94;91.99
77227;BME280;66234;47.642;19.144;2023-01-01T06:29:18;101482.09;;;2.92;91.85
77227;BME280;66234;47.642;19.144;2023-01-01T06:32:21;101485.53;;;2.92;91.97
77227;BME280;66234;47.642;19.144;2023-01-01T06:35:24;101480.91;;;2.85;91.58
77227;BME280;66234;47.642;19.144;2023-01-01T06:38:26;101484.19;;;2.77;92.26
77227;BME280;66234;47.642;19.144;2023-01-01T06:41:29;101484.44;;;2.74;92.89
77227;BME280;66234;47.642;19.144;2023-01-01T06:44:32;101483.25;;;2.78;92.91
77227;BME280;66234;47.642;19.144;2023-01-01T06:47:35;101481.63;;;2.87;92.60
77227;BME280;66234;47.642;19.144;2023-01-01T06:50:40;101475.31;;;2.78;92.92
77227;BME280;66234;47.642;19.144;2023-01-01T06:53:43;101476.59;;;2.84;93.18
77227;BME280;66234;47.642;19.144;2023-01-01T06:56:45;101464.81;;;2.88;93.13
77227;BME280;66234;47.642;19.144;2023-01-01T06:59:48;101466.50;;;2.89;93.44
77227;BME280;66234;47.642;19.144;2023-01-01T07:02:50;101473.91;;;2.95;93.48
77227;BME280;66234;47.642;19.144;2023-01-01T07:05:53;101460.31;;;2.99;93.52
77227;BME280;66234;47.642;19.144;2023-01-01T07:08:56;101459.31;;;3.00;93.56
77227;BME280;66234;47.642;19.144;2023-01-01T07:11:59;101462.75;;;3.12;93.49
77227;BME280;66234;47.642;19.144;2023-01-01T07:15:01;101467.19;;;3.11;93.38
77227;BME280;66234;47.642;19.144;2023-01-01T07:18:05;101469.56;;;3.14;93.38
77227;BME280;66234;47.642;19.144;2023-01-01T07:21:24;101468.72;;;3.34;92.90
77227;BME280;66234;47.642;19.144;2023-01-01T07:24:31;101461.91;;;3.32;92.99
77227;BME280;66234;47.642;19.144;2023-01-01T07:27:33;101477.94;;;3.40;92.80
77227;BME280;66234;47.642;19.144;2023-01-01T07:30:36;101488.78;;;3.37;92.95
77227;BME280;66234;47.642;19.144;2023-01-01T07:33:38;101483.44;;;3.58;92.45
77227;BME280;66234;47.642;19.144;2023-01-01T07:36:41;101483.63;;;3.66;91.81
77227;BME280;66234;47.642;19.144;2023-01-01T07:39:45;101480.00;;;3.67;92.24
77227;BME280;66234;47.642;19.144;2023-01-01T07:42:47;101485.19;;;3.78;92.26
77227;BME280;66234;47.642;19.144;2023-01-01T07:45:50;101483.88;;;3.93;90.94
77227;BME280;66234;47.642;19.144;2023-01-01T07:48:53;101491.63;;;3.85;90.29
77227;BME280;66234;47.642;19.144;2023-01-01T07:51:55;101506.34;;;3.68;91.46
77227;BME280;66234;47.642;19.144;2023-01-01T07:54:58;101510.69;;;3.79;91.42
77227;BME280;66234;47.642;19.144;2023-01-01T07:58:01;101511.38;;;3.81;90.45
77227;BME280;66234;47.642;19.144;2023-01-01T08:01:03;101508.19;;;3.77;91.70
77227;BME280;66234;47.642;19.144;2023-01-01T08:04:06;101518.13;;;3.94;91.08
77227;BME280;66234;47.642;19.144;2023-01-01T08:07:09;101526.31;;;3.61;92.03
77227;BME280;66234;47.642;19.144;2023-01-01T08:10:13;101532.94;;;3.76;92.22
77227;BME280;66234;47.642;19.144;2023-01-01T08:13:17;101537.09;;;4.09;90.93
77227;BME280;66234;47.642;19.144;2023-01-01T08:16:20;101537.25;;;4.07;90.46
77227;BME280;66234;47.642;19.144;2023-01-01T08:19:23;101539.66;;;4.20;89.80
77227;BME280;66234;47.642;19.144;2023-01-01T08:22:25;101536.75;;;4.23;89.60
77227;BME280;66234;47.642;19.144;2023-01-01T08:25:28;101546.78;;;4.29;89.31
77227;BME280;66234;47.642;19.144;2023-01-01T08:28:30;101556.31;;;4.41;89.20
77227;BME280;66234;47.642;19.144;2023-01-01T08:31:33;101549.59;;;4.37;89.37
77227;BME280;66234;47.642;19.144;2023-01-01T08:34:35;101542.13;;;4.51;88.88
77227;BME280;66234;47.642;19.144;2023-01-01T08:37:38;101546.72;;;4.59;88.92
77227;BME280;66234;47.642;19.144;2023-01-01T08:40:41;101558.00;;;4.70;88.54
77227;BME280;66234;47.642;19.144;2023-01-01T08:43:43;101561.25;;;4.93;87.62
77227;BME280;66234;47.642;19.144;2023-01-01T08:46:46;101553.72;;;5.07;87.69
77227;BME280;66234;47.642;19.144;2023-01-01T08:49:49;101561.69;;;4.98;87.74
77227;BME280;66234;47.642;19.144;2023-01-01T08:52:52;101557.06;;;5.09;87.34
77227;BME280;66234;47.642;19.144;2023-01-01T08:55:59;101552.03;;;5.26;86.91
77227;BME280;66234;47.642;19.144;2023-01-01T08:59:03;101546.16;;;5.32;87.37
77227;BME280;66234;47.642;19.144;2023-01-01T09:02:06;101536.94;;;5.36;87.03
77227;BME280;66234;47.642;19.144;2023-01-01T09:05:09;101534.41;;;5.53;86.72
77227;BME280;66234;47.642;19.144;2023-01-01T09:08:12;101544.03;;;5.54;86.88
77227;BME280;66234;47.642;19.144;2023-01-01T09:11:27;101554.19;;;5.68;86.74
77227;BME280;66234;47.642;19.144;2023-01-01T09:14:32;101550.81;;;5.76;86.10
77227;BME280;66234;47.642;19.144;2023-01-01T09:17:34;101550.03;;;5.56;87.63
77227;BME280;66234;47.642;19.144;2023-01-01T09:20:40;101552.22;;;5.70;86.62
77227;BME280;66234;47.642;19.144;2023-01-01T09:23:42;101553.09;;;5.61;86.53
77227;BME280;66234;47.642;19.144;2023-01-01T09:26:45;101552.97;;;5.53;87.11
77227;BME280;66234;47.642;19.144;2023-01-01T09:29:48;101555.47;;;5.55;87.40
77227;BME280;66234;47.642;19.144;2023-01-01T09:32:50;101553.69;;;5.46;88.36
77227;BME280;66234;47.642;19.144;2023-01-01T09:35:53;101547.41;;;5.37;88.62
77227;BME280;66234;47.642;19.144;2023-01-01T09:38:57;101548.09;;;5.49;88.49
77227;BME280;66234;47.642;19.144;2023-01-01T09:42:13;101546.91;;;5.70;87.64
77227;BME280;66234;47.642;19.144;2023-01-01T09:45:28;101552.34;;;5.88;87.29
77227;BME280;66234;47.642;19.144;2023-01-01T09:48:35;101549.69;;;5.88;87.59
77227;BME280;66234;47.642;19.144;2023-01-01T09:51:41;101548.69;;;5.98;87.38
77227;BME280;66234;47.642;19.144;2023-01-01T09:54:58;101551.03;;;6.01;86.94
77227;BME280;66234;47.642;19.144;2023-01-01T09:58:03;101562.78;;;6.26;86.23
77227;BME280;66234;47.642;19.144;2023-01-01T10:01:15;101561.06;;;6.34;85.60
77227;BME280;66234;47.642;19.144;2023-01-01T10:07:52;101558.56;;;6.33;86.40
77227;BME280;66234;47.642;19.144;2023-01-01T10:14:28;101559.81;;;6.56;85.54
77227;BME280;66234;47.642;19.144;2023-01-01T10:17:37;101556.50;;;6.54;85.40
77227;BME280;66234;47.642;19.144;2023-01-01T10:20:47;101560.50;;;6.58;85.30
77227;BME280;66234;47.642;19.144;2023-01-01T10:27:40;101551.53;;;6.59;85.81
77227;BME280;66234;47.642;19.144;2023-01-01T10:30:46;101544.72;;;6.56;86.36
77227;BME280;66234;47.642;19.144;2023-01-01T10:33:49;101538.50;;;6.65;85.94
77227;BME280;66234;47.642;19.144;2023-01-01T10:36:54;101534.28;;;6.72;85.79
77227;BME280;66234;47.642;19.144;2023-01-01T10:40:06;101535.47;;;6.78;85.45
77227;BME280;66234;47.642;19.144;2023-01-01T10:43:14;101541.53;;;6.70;86.41
77227;BME280;66234;47.642;19.144;2023-01-01T10:46:20;101535.22;;;6.71;86.40
77227;BME280;66234;47.642;19.144;2023-01-01T10:49:33;101522.47;;;6.75;86.46
77227;BME280;66234;47.642;19.144;2023-01-01T10:52:38;101517.63;;;6.70;87.13
77227;BME280;66234;47.642;19.144;2023-01-01T10:55:47;101510.13;;;6.84;87.13
77227;BME280;66234;47.642;19.144;2023-01-01T10:58:52;101511.31;;;6.89;87.14
77227;BME280;66234;47.642;19.144;2023-01-01T11:02:18;101499.84;;;7.06;86.58
77227;BME280;66234;47.642;19.144;2023-01-01T11:05:22;101476.84;;;7.23;85.96
77227;BME280;66234;47.642;19.144;2023-01-01T11:08:25;101475.41;;;7.28;86.41
77227;BME280;66234;47.642;19.144;2023-01-01T11:11:43;101457.34;;;7.40;85.94
77227;BME280;66234;47.642;19.144;2023-01-01T11:14:51;101453.06;;;7.47;86.04
77227;BME280;66234;47.642;19.144;2023-01-01T11:18:04;101457.19;;;7.67;85.16
77227;BME280;66234;47.642;19.144;2023-01-01T11:21:07;101459.72;;;7.84;84.47
77227;BME280;66234;47.642;19.144;2023-01-01T11:27:25;101478.19;;;7.78;84.14
77227;BME280;66234;47.642;19.144;2023-01-01T11:30:28;101469.78;;;7.65;84.51
77227;BME280;66234;47.642;19.144;2023-01-01T11:33:33;101459.38;;;7.46;85.38
77227;BME280;66234;47.642;19.144;2023-01-01T11:36:37;101463.50;;;7.40;85.68
77227;BME280;66234;47.642;19.144;2023-01-01T11:39:42;101452.91;;;7.23;86.49
77227;BME280;66234;47.642;19.144;2023-01-01T11:42:55;101457.13;;;7.08;86.88
77227;BME280;66234;47.642;19.144;2023-01-01T11:46:06;101456.81;;;7.11;86.97
77227;BME280;66234;47.642;19.144;2023-01-01T11:49:14;101463.31;;;6.91;87.50
77227;BME280;66234;47.642;19.144;2023-01-01T11:52:38;101470.09;;;6.85;87.89
77227;BME280;66234;47.642;19.144;2023-01-01T11:55:45;101454.38;;;6.74;88.12
77227;BME280;66234;47.642;19.144;2023-01-01T11:58:56;101444.13;;;6.61;88.71
77227;BME280;66234;47.642;19.144;2023-01-01T12:02:02;101452.56;;;6.57;89.37
77227;BME280;66234;47.642;19.144;2023-01-01T12:05:36;101443.50;;;6.50;89.58
77227;BME280;66234;47.642;19.144;2023-01-01T12:08:47;101443.66;;;6.48;90.25
77227;BME280;66234;47.642;19.144;2023-01-01T12:12:01;101444.06;;;6.71;89.19
77227;BME280;66234;47.642;19.144;2023-01-01T12:15:27;101433.56;;;6.69;90.02
77227;BME280;66234;47.642;19.144;2023-01-01T12:19:01;101431.78;;;6.96;88.84
77227;BME280;66234;47.642;19.144;2023-01-01T12:22:15;101435.00;;;7.07;88.74
77227;BME280;66234;47.642;19.144;2023-01-01T12:25:18;101429.59;;;7.17;88.50
77227;BME280;66234;47.642;19.144;2023-01-01T12:42:07;101419.59;;;7.11;89.00
77227;BME280;66234;47.642;19.144;2023-01-01T12:52:19;101439.19;;;7.35;88.77
77227;BME280;66234;47.642;19.144;2023-01-01T12:59:12;101442.22;;;7.40;89.01
77227;BME280;66234;47.642;19.144;2023-01-01T13:02:23;101439.59;;;7.23;89.33
77227;BME280;66234;47.642;19.144;2023-01-01T13:05:37;101441.63;;;7.21;89.68
77227;BME280;66234;47.642;19.144;2023-01-01T13:08:41;101436.00;;;7.06;90.25
77227;BME280;66234;47.642;19.144;2023-01-01T13:11:48;101447.03;;;7.11;90.60
77227;BME280;66234;47.642;19.144;2023-01-01T13:14:52;101442.19;;;7.07;90.47
77227;BME280;66234;47.642;19.144;2023-01-01T13:17:54;101443.13;;;6.98;91.20
77227;BME280;66234;47.642;19.144;2023-01-01T13:21:17;101449.50;;;6.87;92.12
77227;BME280;66234;47.642;19.144;2023-01-01T13:24:25;101444.56;;;6.74;92.79
77227;BME280;66234;47.642;19.144;2023-01-01T13:30:59;101444.25;;;6.78;92.36
77227;BME280;66234;47.642;19.144;2023-01-01T13:37:49;101452.09;;;6.79;92.42
77227;BME280;66234;47.642;19.144;2023-01-01T13:40:51;101462.34;;;6.74;92.64
77227;BME280;66234;47.642;19.144;2023-01-01T13:54:06;101466.19;;;6.97;93.02
77227;BME280;66234;47.642;19.144;2023-01-01T13:57:35;101469.59;;;7.07;92.65
77227;BME280;66234;47.642;19.144;2023-01-01T14:04:22;101474.28;;;7.13;92.72
77227;BME280;66234;47.642;19.144;2023-01-01T14:07:43;101476.03;;;7.22;92.38
77227;BME280;66234;47.642;19.144;2023-01-01T14:10:55;101464.09;;;7.26;92.32
77227;BME280;66234;47.642;19.144;2023-01-01T14:13:58;101462.75;;;7.30;92.16
77227;BME280;66234;47.642;19.144;2023-01-01T14:17:05;101472.13;;;7.34;92.66
77227;BME280;66234;47.642;19.144;2023-01-01T14:20:14;101474.63;;;7.36;93.04
77227;BME280;66234;47.642;19.144;2023-01-01T14:23:36;101480.78;;;7.36;92.71
77227;BME280;66234;47.642;19.144;2023-01-01T14:26:40;101468.31;;;7.37;92.01
77227;BME280;66234;47.642;19.144;2023-01-01T14:29:45;101473.47;;;7.38;92.18
77227;BME280;66234;47.642;19.144;2023-01-01T14:32:57;101473.78;;;7.35;92.13
77227;BME280;66234;47.642;19.144;2023-01-01T14:36:01;101474.47;;;7.37;92.08
77227;BME280;66234;47.642;19.144;2023-01-01T14:39:22;101468.84;;;7.40;91.77
77227;BME280;66234;47.642;19.144;2023-01-01T14:42:29;101476.13;;;7.38;91.72
77227;BME280;66234;47.642;19.144;2023-01-01T14:45:34;101465.47;;;7.38;92.14
77227;BME280;66234;47.642;19.144;2023-01-01T14:48:42;101467.34;;;7.38;91.74
77227;BME280;66234;47.642;19.144;2023-01-01T14:51:52;101468.84;;;7.40;91.76
77227;BME280;66234;47.642;19.144;2023-01-01T14:54:58;101478.53;;;7.49;92.11
77227;BME280;66234;47.642;19.144;2023-01-01T14:58:01;101467.72;;;7.51;91.39
77227;BME280;66234;47.642;19.144;2023-01-01T15:01:21;101475.03;;;7.49;91.69
77227;BME280;66234;47.642;19.144;2023-01-01T15:04:25;101468.03;;;7.48;91.99
77227;BME280;66234;47.642;19.144;2023-01-01T15:07:29;101471.00;;;7.45;92.08
77227;BME280;66234;47.642;19.144;2023-01-01T15:10:36;101469.69;;;7.49;92.30
77227;BME280;66234;47.642;19.144;2023-01-01T15:13:40;101481.75;;;7.35;92.45
77227;BME280;66234;47.642;19.144;2023-01-01T15:16:42;101478.75;;;7.56;92.11
77227;BME280;66234;47.642;19.144;2023-01-01T15:19:58;101477.25;;;7.53;91.96
77227;BME280;66234;47.642;19.144;2023-01-01T15:23:02;101477.41;;;7.60;91.86
77227;BME280;66234;47.642;19.144;2023-01-01T15:26:36;101499.41;;;7.62;91.98
77227;BME280;66234;47.642;19.144;2023-01-01T15:29:44;101488.84;;;7.52;90.91
77227;BME280;66234;47.642;19.144;2023-01-01T15:32:48;101497.38;;;7.56;90.31
77227;BME280;66234;47.642;19.144;2023-01-01T15:35:52;101498.31;;;7.47;89.98
77227;BME280;66234;47.642;19.144;2023-01-01T15:39:02;101500.44;;;7.43;90.28
77227;BME280;66234;47.642;19.144;2023-01-01T15:42:20;101499.56;;;7.35;90.13
77227;BME280;66234;47.642;19.144;2023-01-01T15:48:32;101515.94;;;7.22;90.71
77227;BME280;66234;47.642;19.144;2023-01-01T15:51:41;101516.75;;;7.23;90.86
77227;BME280;66234;47.642;19.144;2023-01-01T15:54:44;101510.34;;;7.33;90.44
77227;BME280;66234;47.642;19.144;2023-01-01T15:57:48;101528.84;;;7.35;90.55
77227;BME280;66234;47.642;19.144;2023-01-01T16:00:56;101523.19;;;7.38;90.36
77227;BME280;66234;47.642;19.144;2023-01-01T16:04:08;101514.00;;;7.32;90.58
77227;BME280;66234;47.642;19.144;2023-01-01T16:07:20;101516.13;;;7.29;91.00
77227;BME280;66234;47.642;19.144;2023-01-01T16:10:26;101528.53;;;7.20;91.00
77227;BME280;66234;47.642;19.144;2023-01-01T16:13:28;101537.25;;;7.30;90.91
77227;BME280;66234;47.642;19.144;2023-01-01T16:16:31;101529.97;;;7.32;90.77
77227;BME280;66234;47.642;19.144;2023-01-01T16:19:34;101532.84;;;7.39;90.11
77227;BME280;66234;47.642;19.144;2023-01-01T16:22:36;101518.38;;;7.41;90.05
77227;BME280;66234;47.642;19.144;2023-01-01T16:25:39;101537.84;;;7.42;90.59
77227;BME280;66234;47.642;19.144;2023-01-01T16:28:41;101538.00;;;7.40;90.31
77227;BME280;66234;47.642;19.144;2023-01-01T16:31:45;101539.81;;;7.40;90.29
77227;BME280;66234;47.642;19.144;2023-01-01T16:34:48;101540.97;;;7.37;90.58
77227;BME280;66234;47.642;19.144;2023-01-01T16:37:51;101547.81;;;7.40;90.40
77227;BME280;66234;47.642;19.144;2023-01-01T16:40:53;101546.78;;;7.33;90.98
77227;BME280;66234;47.642;19.144;2023-01-01T16:43:56;101551.56;;;7.29;90.99
77227;BME280;66234;47.642;19.144;2023-01-01T16:46:59;101552.47;;;7.38;91.02
77227;BME280;66234;47.642;19.144;2023-01-01T16:50:01;101545.47;;;7.37;91.42
77227;BME280;66234;47.642;19.144;2023-01-01T16:53:04;101545.91;;;7.50;91.00
77227;BME280;66234;47.642;19.144;2023-01-01T16:56:10;101548.03;;;7.46;90.83
77227;BME280;66234;47.642;19.144;2023-01-01T16:59:12;101536.34;;;7.39;91.43
77227;BME280;66234;47.642;19.144;2023-01-01T17:02:16;101549.13;;;7.36;91.18
77227;BME280;66234;47.642;19.144;2023-01-01T17:05:19;101545.47;;;7.37;91.37
77227;BME280;66234;47.642;19.144;2023-01-01T17:08:21;101550.69;;;7.46;90.62
77227;BME280;66234;47.642;19.144;2023-01-01T17:11:24;101552.19;;;7.49;90.20
77227;BME280;66234;47.642;19.144;2023-01-01T17:14:27;101557.34;;;7.50;90.50
77227;BME280;66234;47.642;19.144;2023-01-01T17:17:29;101559.59;;;7.55;90.13
77227;BME280;66234;47.642;19.144;2023-01-01T17:20:33;101543.47;;;7.56;89.97
77227;BME280;66234;47.642;19.144;2023-01-01T17:23:37;101546.44;;;7.53;89.87
77227;BME280;66234;47.642;19.144;2023-01-01T17:26:43;101554.81;;;7.41;89.99
77227;BME280;66234;47.642;19.144;2023-01-01T17:29:46;101559.13;;;7.42;90.75
77227;BME280;66234;47.642;19.144;2023-01-01T17:32:48;101551.16;;;7.42;90.14
77227;BME280;66234;47.642;19.144;2023-01-01T17:35:51;101549.50;;;7.41;90.66
77227;BME280;66234;47.642;19.144;2023-01-01T17:38:54;101542.72;;;7.29;90.66
77227;BME280;66234;47.642;19.144;2023-01-01T17:41:57;101547.09;;;7.30;91.25
77227;BME280;66234;47.642;19.144;2023-01-01T17:44:59;101542.94;;;7.35;91.06
77227;BME280;66234;47.642;19.144;2023-01-01T17:48:02;101545.16;;;7.40;91.00